Time;durP1;ratioP1;P1;durP2;ratioP2;P2;SDS_P1;SDS_P2;PMS_P1;PMS_P2;Temp;Humidity;BMP_temperature;BMP_pressure;BME280_temperature;BME280_humidity;BME280_pressure;Samples;Min_cycle;Max_cycle;Signal;HPM_P1;HPM_P2
2022/08/25 00:02:37;;;;;;;19.45;16.65;;;;;;;14.85;100.00;97126.31;10452703;28;20286;-73
2022/08/25 00:07:37;;;;;;;27.27;17.13;;;;;;;14.76;100.00;97124.72;10451749;28;20247;-73
2022/08/25 00:12:38;;;;;;;25.52;17.90;;;;;;;14.72;100.00;97128.72;10452283;28;20187;-73
2022/08/25 00:17:38;;;;;;;26.10;17.50;;;;;;;14.69;100.00;97118.53;10451627;28;20227;-73
2022/08/25 00:22:38;;;;;;;24.88;16.88;;;;;;;14.73;100.00;97127.72;10451614;28;20252;-73
2022/08/25 00:27:39;;;;;;;23.70;17.73;;;;;;;14.67;100.00;97116.06;10451856;28;20188;-73
2022/08/25 00:32:39;;;;;;;23.20;17.20;;;;;;;14.56;100.00;97111.97;10451284;28;20203;-74
2022/08/25 00:37:39;;;;;;;29.40;20.17;;;;;;;14.54;100.00;97119.19;10451104;28;20228;-73
2022/08/25 00:42:40;;;;;;;25.75;20.02;;;;;;;14.69;100.00;97116.69;10451183;28;20250;-74
2022/08/25 00:47:41;;;;;;;26.08;16.77;;;;;;;14.66;100.00;97111.75;10450646;28;20190;-74
2022/08/25 00:52:44;;;;;;;23.70;17.95;;;;;;;14.57;100.00;97105.66;10450962;28;20188;-74
2022/08/25 00:57:49;;;;;;;27.70;17.85;;;;;;;14.53;100.00;97109.66;10450547;28;20579;-73
2022/08/25 01:02:49;;;;;;;23.90;18.23;;;;;;;14.40;100.00;97104.91;10432255;28;20233;-74
2022/08/25 01:07:51;;;;;;;18.08;16.17;;;;;;;14.26;100.00;97092.47;10449748;28;20231;-74
2022/08/25 01:12:56;;;;;;;22.83;17.48;;;;;;;14.23;100.00;97096.25;10433303;28;20188;-74
2022/08/25 01:17:57;;;;;;;25.25;19.05;;;;;;;14.28;100.00;97096.56;10450252;28;20212;-74
2022/08/25 01:22:58;;;;;;;22.00;17.42;;;;;;;14.32;100.00;97096.22;10449531;28;20203;-73
2022/08/25 01:27:58;;;;;;;20.73;17.65;;;;;;;14.27;100.00;97099.34;10449497;28;20522;-74
2022/08/25 01:33:02;;;;;;;26.27;17.75;;;;;;;14.12;100.00;97091.38;10449083;28;20195;-73
2022/08/25 01:38:04;;;;;;;22.05;16.77;;;;;;;14.05;100.00;97087.75;10449055;28;20276;-74
2022/08/25 01:43:13;;;;;;;25.70;17.45;;;;;;;14.07;100.00;97104.19;10431029;28;20196;-74
2022/08/25 01:48:14;;;;;;;24.75;18.70;;;;;;;13.98;100.00;97095.53;10449021;28;20636;-73
2022/08/25 01:53:25;;;;;;;26.60;18.00;;;;;;;14.06;100.00;97099.94;10448912;28;20191;-73
2022/08/25 01:58:32;;;;;;;28.88;19.63;;;;;;;14.12;100.00;97101.06;10448824;28;20200;-74
2022/08/25 02:03:36;;;;;;;26.40;19.83;;;;;;;14.11;100.00;97100.25;10431321;28;20612;-73
2022/08/25 02:08:37;;;;;;;25.35;18.90;;;;;;;14.14;100.00;97101.72;10453583;28;20243;-74
2022/08/25 02:13:39;;;;;;;23.60;19.15;;;;;;;14.14;100.00;97099.91;10456231;28;20199;-73
2022/08/25 02:18:39;;;;;;;24.88;19.42;;;;;;;14.05;100.00;97087.75;10438870;28;20196;-74
2022/08/25 02:23:41;;;;;;;25.15;17.55;;;;;;;14.02;100.00;97096.00;10456595;28;20246;-73
2022/08/25 02:28:42;;;;;;;27.25;20.00;;;;;;;13.94;100.00;97099.47;10456356;28;20195;-73
2022/08/25 02:33:42;;;;;;;27.75;20.38;;;;;;;13.96;100.00;97101.94;10455853;28;20216;-73
2022/08/25 02:38:42;;;;;;;26.20;20.58;;;;;;;13.97;100.00;97098.31;10438356;28;20318;-73
2022/08/25 02:43:43;;;;;;;27.75;21.05;;;;;;;13.98;100.00;97097.31;10455027;28;20192;-74
2022/08/25 02:48:44;;;;;;;34.92;23.13;;;;;;;14.02;100.00;97088.09;10437739;28;20199;-74
2022/08/25 02:53:45;;;;;;;35.78;22.33;;;;;;;14.14;100.00;97101.72;10455227;28;20219;-73
2022/08/25 02:58:46;;;;;;;30.33;22.15;;;;;;;14.08;100.00;97097.94;10454979;28;20188;-73
2022/08/25 03:03:48;;;;;;;29.70;21.70;;;;;;;14.04;100.00;97099.28;10452974;28;20184;-73
2022/08/25 03:08:49;;;;;;;29.80;22.38;;;;;;;14.01;100.00;97087.28;10433110;28;20254;-74
2022/08/25 03:13:49;;;;;;;32.60;22.58;;;;;;;14.04;100.00;97084.31;10433278;28;20219;-75
2022/08/25 03:18:50;;;;;;;35.90;23.15;;;;;;;13.98;100.00;97084.97;10432570;28;20652;-75
2022/08/25 03:23:50;;;;;;;33.13;25.27;;;;;;;14.03;100.00;97076.56;10450488;28;20192;-74
2022/08/25 03:28:51;;;;;;;37.92;26.88;;;;;;;14.10;100.00;97088.06;10415612;28;20192;-74
2022/08/25 03:33:51;;;;;;;32.13;23.58;;;;;;;14.00;100.00;97083.00;10449994;28;20292;-74
2022/08/25 03:38:52;;;;;;;34.60;24.45;;;;;;;13.92;100.00;97077.75;10449961;28;20191;-74
2022/08/25 03:43:53;;;;;;;35.35;26.05;;;;;;;14.07;100.00;97085.75;10431706;28;20528;-74
2022/08/25 03:48:54;;;;;;;37.55;25.08;;;;;;;13.98;100.00;97084.97;10449526;28;20192;-73
2022/08/25 03:53:56;;;;;;;38.00;27.70;;;;;;;14.07;100.00;97083.97;10449111;28;20224;-74
2022/08/25 03:58:57;;;;;;;36.03;26.15;;;;;;;13.99;100.00;97094.50;10430920;28;20202;-74
2022/08/25 04:03:57;;;;;;;40.20;26.42;;;;;;;14.04;100.00;97089.56;10451738;28;20199;-73
2022/08/25 04:08:58;;;;;;;36.60;24.75;;;;;;;14.02;100.00;97096.81;10434262;28;20271;-73
2022/08/25 04:14:00;;;;;;;37.47;26.05;;;;;;;13.96;100.00;97094.84;10452146;28;20277;-73
2022/08/25 04:19:02;;;;;;;34.55;26.00;;;;;;;14.00;100.00;97084.81;10452017;28;20188;-74
2022/08/25 04:24:04;;;;;;;31.95;24.45;;;;;;;14.02;100.00;97082.81;10451704;28;20188;-73
2022/08/25 04:29:06;;;;;;;34.80;24.55;;;;;;;14.04;100.00;97073.78;10433390;28;20283;-73
2022/08/25 04:34:07;;;;;;;37.67;24.95;;;;;;;14.00;100.00;97069.00;10451227;28;20699;-73
2022/08/25 04:39:07;;;;;;;37.75;25.77;;;;;;;14.05;100.00;97069.31;10451350;28;20195;-74
2022/08/25 04:44:07;;;;;;;30.92;23.40;;;;;;;14.05;100.00;97069.31;10433147;28;20192;-73
2022/08/25 04:49:08;;;;;;;37.40;26.77;;;;;;;14.13;100.00;97071.09;10433210;28;20267;-73
2022/08/25 04:54:11;;;;;;;38.97;26.52;;;;;;;14.33;100.00;97071.50;10449556;28;20579;-73
2022/08/25 04:59:13;;;;;;;40.20;27.00;;;;;;;14.38;100.00;97075.28;10450817;28;20222;-73
2022/08/25 05:04:14;;;;;;;34.38;25.75;;;;;;;14.38;100.00;97080.56;10433000;28;20928;-73
2022/08/25 05:09:15;;;;;;;30.90;23.25;;;;;;;14.54;100.00;97068.28;10416708;28;20195;-72
2022/08/25 05:14:20;;;;;;;34.33;24.67;;;;;;;14.57;100.00;97068.75;10432927;28;20216;-73
2022/08/25 05:19:22;;;;;;;29.25;24.05;;;;;;;14.72;100.00;97057.53;10451226;28;20200;-73
2022/08/25 05:24:23;;;;;;;30.00;22.92;;;;;;;14.82;100.00;97063.38;10450856;28;20721;-72
2022/08/25 05:29:23;;;;;;;29.92;24.38;;;;;;;14.90;100.00;97057.22;10451392;28;20188;-73
2022/08/25 05:34:24;;;;;;;32.15;24.95;;;;;;;15.25;100.00;97058.47;10465907;28;20258;-74
2022/08/25 05:39:24;;;;;;;32.13;23.55;;;;;;;15.45;100.00;97047.38;10482567;28;20246;-72
2022/08/25 05:44:25;;;;;;;30.75;23.10;;;;;;;15.68;100.00;97036.78;10458109;28;20292;-73
2022/08/25 05:49:26;;;;;;;25.35;22.30;;;;;;;16.02;100.00;97017.78;10440347;28;20230;-73
2022/08/25 05:54:26;;;;;;;27.50;21.65;;;;;;;16.75;100.00;97001.09;10440304;28;20381;-72
2022/08/25 05:59:26;;;;;;;23.50;17.17;;;;;;;17.44;100.00;96971.38;10414107;28;20197;-73
2022/08/25 06:04:27;;;;;;;20.48;16.20;;;;;;;17.97;100.00;96960.28;10408667;28;20437;-73
2022/08/25 06:09:27;;;;;;;22.73;15.10;;;;;;;17.63;100.00;96950.50;10398065;28;20315;-72
2022/08/25 06:14:28;;;;;;;18.08;15.63;;;;;;;18.29;100.00;96954.50;10415809;28;20221;-72
2022/08/25 06:19:29;;;;;;;21.50;15.43;;;;;;;18.71;100.00;96949.88;10405341;28;20227;-72
2022/08/25 06:24:30;;;;;;;16.40;13.73;;;;;;;19.69;100.00;96948.41;10440846;28;20208;-72
2022/08/25 06:29:30;;;;;;;16.80;12.85;;;;;;;20.84;100.00;96945.03;10435611;28;20230;-72
2022/08/25 06:34:31;;;;;;;16.05;13.55;;;;;;;21.38;100.00;96937.44;10435179;28;20266;-72
2022/08/25 06:39:31;;;;;;;16.42;12.90;;;;;;;21.87;100.00;96922.38;10456039;28;20187;-72
2022/08/25 06:44:32;;;;;;;18.52;13.45;;;;;;;21.64;100.00;96936.38;10437796;28;20658;-72
2022/08/25 06:49:33;;;;;;;25.70;15.23;;;;;;;21.55;100.00;96951.84;10455528;28;20200;-72
2022/08/25 06:54:33;;;;;;;19.98;13.60;;;;;;;22.27;100.00;96940.53;10454947;28;20232;-72
2022/08/25 06:59:35;;;;;;;19.42;15.20;;;;;;;22.26;100.00;96938.09;10432426;28;20198;-73
2022/08/25 07:04:35;;;;;;;21.45;14.88;;;;;;;23.64;100.00;96915.81;10452384;28;20239;-74
2022/08/25 07:09:36;;;;;;;22.85;15.20;;;;;;;24.54;99.80;96921.59;10419629;28;20561;-73
2022/08/25 07:14:36;;;;;;;26.48;14.25;;;;;;;24.91;90.42;96897.06;10437591;28;20247;-72
2022/08/25 07:19:36;;;;;;;24.73;13.95;;;;;;;24.45;93.28;96904.31;10415993;28;20271;-73
2022/08/25 07:24:37;;;;;;;18.83;13.13;;;;;;;24.50;95.02;96921.28;10443725;28;20675;-73
2022/08/25 07:29:38;;;;;;;23.15;13.57;;;;;;;24.45;95.74;96915.00;10428787;28;20659;-74
2022/08/25 07:40:01;;;;;;;21.08;11.48;;;;;;;26.96;82.19;96881.81;10452069;28;20176;-74
2022/08/25 07:45:04;;;;;;;19.95;11.02;;;;;;;28.41;73.10;96833.72;10451957;28;20188;-74
2022/08/25 07:50:06;;;;;;;22.58;10.38;;;;;;;27.92;75.65;96872.66;10452025;28;20202;-73
2022/08/25 07:55:07;;;;;;;27.08;9.60;;;;;;;28.94;69.73;96822.66;10449822;28;20219;-73
2022/08/25 08:00:09;;;;;;;20.00;10.15;;;;;;;27.30;77.95;96892.25;10450872;28;20551;-74
2022/08/25 08:05:18;;;;;;;26.98;11.23;;;;;;;26.31;79.64;96901.38;10449070;28;20251;-74
2022/08/25 08:10:24;;;;;;;23.33;10.80;;;;;;;26.69;79.48;96883.50;10456958;28;20230;-74
2022/08/25 08:15:25;;;;;;;22.23;9.70;;;;;;;27.70;74.63;96862.09;10449327;28;20228;-72
2022/08/25 08:20:26;;;;;;;25.00;9.17;;;;;;;29.35;68.24;96827.19;10450664;28;20203;-72
2022/08/25 08:25:26;;;;;;;21.02;9.90;;;;;;;28.46;71.24;96849.91;10432241;28;20442;-72
2022/08/25 08:30:26;;;;;;;29.98;10.55;;;;;;;27.84;73.67;96881.25;10442319;28;20228;-72
2022/08/25 08:35:27;;;;;;;23.50;9.93;;;;;;;27.68;72.74;96861.53;10448753;28;20238;-72
2022/08/25 08:40:28;;;;;;;23.55;10.13;;;;;;;26.97;75.48;96886.94;10450060;28;20435;-72
2022/08/25 08:45:32;;;;;;;22.90;9.18;;;;;;;26.20;81.19;96918.41;10434236;28;20183;-71
2022/08/25 08:50:45;;;;;;;23.50;9.60;;;;;;;25.67;81.84;96898.44;10448816;28;20342;-73
2022/08/25 08:55:48;;;;;;;32.53;9.70;;;;;;;26.60;81.92;96906.50;10429966;28;20216;-73
2022/08/25 09:00:53;;;;;;;28.08;8.85;;;;;;;25.97;81.36;96892.63;10411878;28;20298;-72
2022/08/25 09:05:55;;;;;;;21.70;7.97;;;;;;;26.43;79.52;96876.22;10430501;28;20310;-72
2022/08/25 09:11:37;;;;;;;22.75;8.43;;;;;;;26.86;79.57;96874.47;10431354;28;20283;-73
2022/08/25 09:16:55;;;;;;;29.00;8.82;;;;;;;26.61;79.61;96881.22;10425284;28;20801;-73
2022/08/25 09:22:26;;;;;;;15.07;7.95;;;;;;;27.10;77.75;96866.84;10458666;28;20191;-73
2022/08/25 09:27:38;;;;;;;24.30;8.82;;;;;;;26.56;77.85;96866.94;10457161;28;20187;-73
2022/08/25 09:32:42;;;;;;;23.77;8.45;;;;;;;26.48;81.22;96885.16;10439251;28;20189;-73
2022/08/25 09:37:51;;;;;;;21.70;8.85;;;;;;;28.30;74.82;96853.66;10455270;28;20691;-73
2022/08/25 09:42:58;;;;;;;26.15;8.15;;;;;;;28.31;73.81;96865.25;10437102;28;20222;-74
2022/08/25 09:47:59;;;;;;;15.85;8.30;;;;;;;27.09;73.56;96832.13;10454393;28;20223;-73
2022/08/25 09:53:12;;;;;;;29.15;9.50;;;;;;;26.57;77.89;96869.38;10463725;28;20203;-74
2022/08/25 09:58:19;;;;;;;26.45;8.73;;;;;;;26.84;75.62;96842.47;10459253;28;20258;-74
2022/08/25 10:03:21;;;;;;;23.73;8.40;;;;;;;27.25;76.78;96843.81;10437784;28;20204;-77
2022/08/25 10:08:33;;;;;;;22.55;8.27;;;;;;;27.56;78.47;96856.34;10454089;28;20239;-76
2022/08/25 10:13:46;;;;;;;19.77;8.95;;;;;;;28.75;72.97;96819.75;10411649;28;21002;-77
2022/08/25 10:19:04;;;;;;;34.88;9.20;;;;;;;28.39;72.53;96813.50;10454750;28;20220;-75
2022/08/25 10:24:05;;;;;;;34.10;8.52;;;;;;;28.77;69.66;96771.72;10454185;28;20247;-74
2022/08/25 10:29:30;;;;;;;22.17;7.82;;;;;;;29.33;67.55;96748.41;10453668;28;20856;-75
2022/08/25 10:34:38;;;;;;;23.13;8.18;;;;;;;28.52;69.00;96767.16;10438848;28;20608;-75
2022/08/25 10:39:44;;;;;;;31.23;7.95;;;;;;;28.40;71.08;96786.28;10432085;28;20215;-75
2022/08/25 10:50:35;;;;;;;24.58;7.10;;;;;;;30.84;62.59;96707.31;10410740;28;20189;-74
2022/08/25 10:55:46;;;;;;;25.67;7.13;;;;;;;31.02;61.32;96700.38;10430472;28;20228;-75
2022/08/25 11:01:18;;;;;;;26.00;6.95;;;;;;;32.41;57.44;96663.16;10445153;28;20640;-74
2022/08/25 11:06:25;;;;;;;20.33;7.13;;;;;;;32.38;58.10;96684.66;10418542;28;20239;-75
2022/08/25 11:11:50;;;;;;;29.13;6.43;;;;;;;31.86;57.61;96663.00;10434032;28;20200;-74
2022/08/25 11:17:03;;;;;;;27.52;6.63;;;;;;;31.09;57.69;96638.59;10444697;28;20662;-75
2022/08/25 11:22:12;;;;;;;24.83;6.47;;;;;;;32.47;55.04;96634.03;10447262;28;20664;-74
2022/08/25 11:27:19;;;;;;;22.60;6.38;;;;;;;32.00;56.69;96642.94;10428535;28;20199;-75
2022/08/25 11:32:23;;;;;;;27.17;6.80;;;;;;;32.54;54.49;96621.69;10447040;28;20626;-74
2022/08/25 11:37:27;;;;;;;27.65;7.13;;;;;;;31.67;56.04;96633.19;10427736;28;20227;-74
2022/08/25 11:42:41;;;;;;;20.50;7.07;;;;;;;30.73;57.80;96635.50;10445915;28;20256;-75
2022/08/25 11:48:03;;;;;;;25.65;6.38;;;;;;;31.47;57.64;96652.16;10427502;28;20195;-74
2022/08/25 11:53:10;;;;;;;35.97;7.15;;;;;;;30.22;59.70;96656.53;10445244;28;20196;-75
2022/08/25 11:58:26;;;;;;;23.58;6.72;;;;;;;30.21;61.56;96687.34;10445710;28;20220;-75
2022/08/25 12:03:33;;;;;;;30.38;6.82;;;;;;;30.30;61.05;96668.63;10444566;28;20199;-75
2022/08/25 12:08:51;;;;;;;32.22;7.60;;;;;;;30.63;61.91;96689.69;10444762;28;20220;-75
2022/08/25 12:13:51;;;;;;;29.48;7.70;;;;;;;30.45;61.64;96666.91;10426253;28;20188;-75
2022/08/25 12:18:52;;;;;;;22.07;6.23;;;;;;;32.59;56.61;96630.81;10440144;28;20200;-75
2022/08/25 12:24:01;;;;;;;19.03;5.80;;;;;;;33.24;53.69;96603.44;10439597;28;20450;-75
2022/08/25 12:29:10;;;;;;;18.58;5.88;;;;;;;31.17;57.12;96612.78;10423563;28;20504;-75
2022/08/25 12:34:33;;;;;;;33.85;9.90;;;;;;;30.77;58.01;96623.03;10396530;28;20223;-74
2022/08/25 12:39:36;;;;;;;31.98;7.53;;;;;;;30.32;60.69;96649.44;10443448;28;20191;-75
2022/08/25 12:44:46;;;;;;;28.55;7.13;;;;;;;31.55;58.61;96637.19;10414880;28;20255;-75
2022/08/25 12:49:49;;;;;;;27.17;6.93;;;;;;;31.94;54.65;96579.09;10423717;28;20192;-74
2022/08/25 12:54:59;;;;;;;23.70;5.72;;;;;;;32.52;53.97;96588.63;10406861;28;20205;-75
2022/08/25 13:00:12;;;;;;;28.02;6.20;;;;;;;30.78;55.55;96559.69;10405523;28;20196;-75
2022/08/25 13:05:38;;;;;;;29.23;6.28;;;;;;;30.52;59.12;96619.53;10391005;28;20221;-74
2022/08/25 13:10:53;;;;;;;21.00;5.28;;;;;;;33.24;51.71;96543.72;10388657;28;20318;-75
2022/08/25 13:15:59;;;;;;;21.27;5.80;;;;;;;32.38;54.19;96570.75;10388239;28;20220;-74
2022/08/25 13:21:20;;;;;;;25.50;6.32;;;;;;;32.11;53.54;96546.03;10405118;28;20283;-74
2022/08/25 13:26:25;;;;;;;20.55;5.22;;;;;;;33.15;51.24;96525.72;10433804;28;20562;-74
2022/08/25 13:31:26;;;;;;;19.75;5.40;;;;;;;33.89;49.01;96500.03;10447143;28;20620;-75
2022/08/25 13:41:54;;;;;;;29.17;6.43;;;;;;;32.32;51.93;96497.66;10446789;28;20188;-74
2022/08/25 13:47:23;;;;;;;21.38;5.65;;;;;;;32.01;52.01;96490.09;10446726;28;20192;-75
2022/08/25 13:52:28;;;;;;;23.65;6.47;;;;;;;32.23;52.37;96514.94;10429930;28;20231;-74
2022/08/25 13:57:29;;;;;;;30.13;6.53;;;;;;;32.69;51.51;96517.50;10447436;28;20216;-74
2022/08/25 14:02:46;;;;;;;28.80;6.47;;;;;;;32.54;50.26;96485.25;10446497;28;20611;-74
2022/08/25 14:07:54;;;;;;;25.60;6.25;;;;;;;31.75;53.23;96526.91;10437817;28;20279;-74
2022/08/25 14:13:25;;;;;;;26.33;5.97;;;;;;;32.60;51.28;96510.38;10455027;28;20196;-74
2022/08/25 14:18:30;;;;;;;21.85;5.97;;;;;;;31.58;52.98;96495.78;10436824;28;20657;-74
2022/08/25 14:23:30;;;;;;;29.33;6.47;;;;;;;30.95;52.78;96486.19;10436966;28;20619;-74
2022/08/25 14:28:30;;;;;;;29.83;6.57;;;;;;;30.73;55.03;96519.22;10419756;28;20246;-74
2022/08/25 14:33:40;;;;;;;24.85;6.22;;;;;;;33.21;50.02;96481.09;10435638;28;20196;-74
2022/08/25 14:38:41;;;;;;;28.10;5.82;;;;;;;35.08;46.78;96471.00;10416824;28;20350;-75
2022/08/25 14:43:41;;;;;;;33.37;6.80;;;;;;;34.11;47.65;96444.78;10424336;28;20187;-72
2022/08/25 14:48:43;;;;;;;21.57;6.40;;;;;;;31.81;51.84;96447.94;10411051;28;20475;-72
2022/08/25 14:53:43;;;;;;;31.30;6.47;;;;;;;30.82;54.37;96490.41;10410346;28;20443;-74
2022/08/25 14:58:43;;;;;;;30.58;6.00;;;;;;;29.92;57.39;96517.16;10410271;28;20282;-74
2022/08/25 15:03:46;;;;;;;24.13;6.23;;;;;;;29.91;57.39;96510.16;10417530;28;20199;-74
2022/08/25 15:14:05;;;;;;;32.75;6.43;;;;;;;30.13;57.75;96533.97;10409303;28;20199;-74
2022/08/25 15:19:08;;;;;;;34.05;6.30;;;;;;;32.55;50.56;96457.03;10410015;28;20204;-75
2022/08/25 15:24:10;;;;;;;28.88;5.63;;;;;;;34.31;48.85;96470.63;10409129;28;20201;-75
2022/08/25 15:29:10;;;;;;;24.92;5.63;;;;;;;35.34;45.11;96416.53;10409186;28;20648;-75
2022/08/25 15:34:11;;;;;;;29.45;6.25;;;;;;;33.99;47.73;96426.38;10432772;28;20214;-75
2022/08/25 15:39:12;;;;;;;30.35;6.38;;;;;;;35.35;44.55;96411.91;10449710;28;20199;-74
2022/08/25 15:44:12;;;;;;;30.52;6.40;;;;;;;32.68;49.53;96429.13;10449546;28;20203;-74
2022/08/25 15:49:12;;;;;;;30.37;6.10;;;;;;;30.35;53.84;96430.75;10449297;28;20195;-74
2022/08/25 15:54:13;;;;;;;31.10;6.07;;;;;;;31.63;54.01;96481.34;10432379;28;20439;-74
2022/08/25 15:59:13;;;;;;;30.30;6.43;;;;;;;32.13;53.72;96496.94;10420505;28;20189;-74
2022/08/25 16:04:14;;;;;;;22.73;6.00;;;;;;;31.04;57.85;96529.63;10439667;28;20469;-74
2022/08/25 16:09:14;;;;;;;24.17;6.47;;;;;;;29.69;61.15;96545.72;10438313;28;20195;-74
2022/08/25 16:14:15;;;;;;;32.43;6.53;;;;;;;29.63;59.50;96517.16;10407409;28;20487;-74
2022/08/25 16:19:15;;;;;;;29.13;6.50;;;;;;;30.37;58.13;96506.16;10408487;28;20439;-74
2022/08/25 16:24:15;;;;;;;27.17;6.23;;;;;;;29.53;60.06;96513.47;10407052;28;20701;-74
2022/08/25 16:29:16;;;;;;;26.88;7.15;;;;;;;29.41;61.89;96528.41;10407602;28;20937;-73
2022/08/25 16:34:17;;;;;;;24.30;7.20;;;;;;;29.80;59.79;96500.50;10389702;28;20224;-73
2022/08/25 16:39:18;;;;;;;26.13;6.72;;;;;;;29.84;60.92;96521.28;10407986;28;20354;-73
2022/08/25 16:44:19;;;;;;;30.10;7.35;;;;;;;29.24;61.92;96518.03;10388739;28;20238;-73
2022/08/25 16:49:20;;;;;;;24.52;7.22;;;;;;;29.00;64.11;96545.66;10407113;28;20189;-74
2022/08/25 16:59:41;;;;;;;32.20;6.90;;;;;;;27.51;70.32;96576.47;10424165;28;20266;-73
2022/08/25 17:04:41;;;;;;;27.02;8.13;;;;;;;26.54;74.76;96582.41;10422730;28;20287;-74
2022/08/25 17:09:42;;;;;;;38.03;7.50;;;;;;;26.44;76.53;96579.66;10426590;28;20275;-73
2022/08/25 17:15:27;;;;;;;28.00;7.73;;;;;;;25.78;80.76;96575.47;10424598;28;20986;-73
2022/08/25 17:20:27;;;;;;;23.95;7.10;;;;;;;25.67;83.15;96571.91;10424760;28;20487;-73
2022/08/25 17:25:28;;;;;;;28.92;7.80;;;;;;;24.91;86.58;96583.50;10409836;28;20412;-74
2022/08/25 17:30:28;;;;;;;17.42;7.03;;;;;;;25.13;87.38;96582.66;10408255;28;20228;-74
2022/08/25 17:35:28;;;;;;;26.27;8.35;;;;;;;24.97;89.52;96584.38;10373845;28;20703;-74
2022/08/25 17:40:30;;;;;;;29.02;8.23;;;;;;;24.86;91.16;96604.91;10415580;28;20626;-73
2022/08/25 17:45:30;;;;;;;27.83;7.88;;;;;;;24.77;92.28;96596.50;10415550;28;20211;-74
2022/08/25 17:50:32;;;;;;;29.30;8.23;;;;;;;24.52;94.08;96605.81;10413642;28;20188;-74
2022/08/25 17:55:33;;;;;;;33.80;8.30;;;;;;;24.24;98.03;96600.59;10412801;28;20221;-74
2022/08/25 18:00:34;;;;;;;30.65;8.85;;;;;;;24.02;100.00;96606.72;10412406;28;20191;-74
2022/08/25 18:05:36;;;;;;;27.08;9.40;;;;;;;23.78;100.00;96608.72;10441455;28;20242;-73
2022/08/25 18:10:37;;;;;;;31.70;9.13;;;;;;;23.54;100.00;96600.03;10417652;28;20238;-73
2022/08/25 18:15:38;;;;;;;29.50;12.27;;;;;;;23.17;100.00;96611.16;10407119;28;21323;-74
2022/08/25 18:20:38;;;;;;;22.15;11.23;;;;;;;23.03;100.00;96621.31;10429938;28;20204;-73
2022/08/25 18:25:39;;;;;;;33.63;11.85;;;;;;;22.92;100.00;96621.09;10430240;28;20534;-74
2022/08/25 18:30:40;;;;;;;37.05;14.15;;;;;;;22.53;100.00;96630.75;10416351;28;20192;-73
2022/08/25 18:35:40;;;;;;;34.65;10.52;;;;;;;21.77;100.00;96635.94;10413408;28;20675;-73
2022/08/25 18:40:41;;;;;;;26.85;9.68;;;;;;;21.82;100.00;96636.03;10412198;28;20716;-73
2022/08/25 18:45:46;;;;;;;22.42;10.10;;;;;;;21.84;100.00;96631.31;10419956;28;20189;-73
2022/08/25 18:50:49;;;;;;;30.77;10.90;;;;;;;22.02;100.00;96622.38;10409302;28;20239;-73
2022/08/25 18:55:49;;;;;;;25.35;10.35;;;;;;;21.68;100.00;96627.44;10413648;28;20216;-73
2022/08/25 19:00:49;;;;;;;29.10;10.85;;;;;;;21.06;100.00;96641.00;10412078;28;20193;-74
2022/08/25 19:05:51;;;;;;;28.40;10.50;;;;;;;21.01;100.00;96644.34;10411358;28;20236;-73
2022/08/25 19:10:53;;;;;;;32.10;11.82;;;;;;;20.67;100.00;96639.44;10411048;28;20276;-73
2022/08/25 19:15:53;;;;;;;29.77;11.73;;;;;;;20.73;100.00;96644.91;10410572;28;20263;-73
2022/08/25 19:20:53;;;;;;;34.90;12.10;;;;;;;20.31;100.00;96645.53;10410965;28;20522;-73
2022/08/25 19:25:54;;;;;;;32.35;14.25;;;;;;;19.68;100.00;96647.25;10410232;28;20196;-73
2022/08/25 19:30:54;;;;;;;39.70;14.68;;;;;;;19.73;100.00;96660.72;10410979;28;20199;-73
2022/08/25 19:35:54;;;;;;;37.88;14.68;;;;;;;19.68;100.00;96668.53;10409849;28;20374;-73
2022/08/25 19:40:55;;;;;;;31.20;13.65;;;;;;;19.77;100.00;96669.91;10397324;28;20193;-74
2022/08/25 19:45:55;;;;;;;30.98;14.40;;;;;;;19.79;100.00;96664.38;10409956;28;20562;-74
2022/08/25 19:50:55;;;;;;;30.33;13.88;;;;;;;19.63;100.00;96667.53;10414766;28;20238;-74
2022/08/25 19:55:58;;;;;;;36.50;13.73;;;;;;;19.57;100.00;96677.19;10407942;28;20216;-75
2022/08/25 20:00:59;;;;;;;31.23;14.65;;;;;;;19.34;100.00;96672.41;10407014;28;20200;-75
2022/08/25 20:05:59;;;;;;;36.38;16.35;;;;;;;19.28;100.00;96682.06;10430129;28;20630;-73
2022/08/25 20:10:59;;;;;;;36.03;15.65;;;;;;;19.28;100.00;96679.41;10450902;28;20281;-74
2022/08/25 20:16:00;;;;;;;33.67;15.48;;;;;;;19.27;100.00;96671.66;10450917;28;20231;-74
2022/08/25 20:21:00;;;;;;;25.75;14.60;;;;;;;19.21;100.00;96679.41;10454968;28;20195;-74
2022/08/25 20:26:00;;;;;;;33.08;14.68;;;;;;;18.99;100.00;96675.44;10451010;28;20199;-75
2022/08/25 20:31:01;;;;;;;31.00;16.30;;;;;;;18.97;100.00;96682.81;10450764;28;20204;-74
2022/08/25 20:36:03;;;;;;;33.67;15.80;;;;;;;18.84;100.00;96676.50;10450694;28;20510;-75
2022/08/25 20:41:08;;;;;;;26.05;15.57;;;;;;;18.87;100.00;96673.44;10451974;28;20196;-73
2022/08/25 20:46:08;;;;;;;30.67;14.75;;;;;;;18.87;100.00;96672.66;10450167;28;20271;-73
2022/08/25 20:51:10;;;;;;;41.25;16.15;;;;;;;18.64;100.00;96675.75;10449899;28;20585;-74
2022/08/25 20:56:13;;;;;;;35.53;15.82;;;;;;;18.51;100.00;96679.25;10449473;28;20228;-74
2022/08/25 21:01:16;;;;;;;29.80;15.77;;;;;;;18.59;100.00;96680.84;10450086;28;20207;-74
2022/08/25 21:06:16;;;;;;;24.30;14.98;;;;;;;18.56;100.00;96675.97;10448840;28;20651;-74
2022/08/25 21:11:17;;;;;;;27.00;14.88;;;;;;;18.44;100.00;96675.81;10433734;28;20294;-73
2022/08/25 21:16:18;;;;;;;30.60;16.25;;;;;;;18.27;100.00;96680.72;10457734;28;20687;-73
2022/08/25 21:21:18;;;;;;;31.30;16.33;;;;;;;18.20;100.00;96679.91;10458302;28;20183;-73
2022/08/25 21:26:24;;;;;;;30.33;17.80;;;;;;;18.13;100.00;96682.56;10439915;28;20187;-73
2022/08/25 21:31:26;;;;;;;34.38;18.17;;;;;;;18.12;100.00;96684.41;10457887;28;20187;-72
2022/08/25 21:36:28;;;;;;;31.48;17.65;;;;;;;18.23;100.00;96685.63;10457038;28;20636;-74
2022/08/25 21:41:31;;;;;;;28.50;17.73;;;;;;;18.20;100.00;96678.06;10457255;28;20245;-73
2022/08/25 21:46:33;;;;;;;33.92;17.98;;;;;;;18.08;100.00;96675.22;10456717;28;20211;-73
2022/08/25 21:51:37;;;;;;;34.25;18.50;;;;;;;18.05;100.00;96669.53;10456856;28;20210;-73
2022/08/25 21:56:43;;;;;;;43.88;19.80;;;;;;;18.01;100.00;96674.44;10453244;28;20688;-73
2022/08/25 22:01:44;;;;;;;35.90;18.65;;;;;;;17.94;100.00;96670.94;10456414;28;20203;-73
2022/08/25 22:06:44;;;;;;;30.13;18.65;;;;;;;17.89;100.00;96666.25;10455880;28;20228;-73
2022/08/25 22:11:45;;;;;;;29.00;19.10;;;;;;;17.88;100.00;96664.59;10438381;28;20192;-73
2022/08/25 22:16:45;;;;;;;32.65;19.60;;;;;;;17.85;100.00;96659.69;10455006;28;20222;-73
2022/08/25 22:21:46;;;;;;;35.30;19.52;;;;;;;17.75;100.00;96660.13;10455381;28;20184;-73
2022/08/25 22:26:46;;;;;;;29.13;19.27;;;;;;;17.77;100.00;96662.56;10454900;28;20192;-73
2022/08/25 22:31:47;;;;;;;28.10;20.23;;;;;;;17.64;100.00;96658.06;10455724;28;20196;-73
2022/08/25 22:36:47;;;;;;;36.00;20.27;;;;;;;17.64;100.00;96643.00;10454389;28;20223;-73
2022/08/25 22:41:48;;;;;;;35.08;20.83;;;;;;;17.60;100.00;96648.91;10455138;28;20192;-73
2022/08/25 22:46:48;;;;;;;41.95;21.50;;;;;;;17.50;100.00;96651.13;10454503;28;20188;-73
2022/08/25 22:51:48;;;;;;;34.38;21.55;;;;;;;17.48;100.00;96638.88;10454234;28;20313;-73
2022/08/25 22:56:49;;;;;;;39.25;21.30;;;;;;;17.39;100.00;96637.44;10453884;28;20219;-73
2022/08/25 23:01:51;;;;;;;40.55;22.08;;;;;;;17.44;100.00;96635.03;10453605;28;20191;-73
2022/08/25 23:06:51;;;;;;;32.10;21.30;;;;;;;17.38;100.00;96633.19;10453666;28;20234;-72
2022/08/25 23:11:52;;;;;;;30.83;20.50;;;;;;;17.40;100.00;96628.50;10453648;28;20195;-73
2022/08/25 23:16:52;;;;;;;34.80;21.15;;;;;;;17.37;100.00;96622.81;10452560;28;20235;-72
2022/08/25 23:22:08;;;;;;;35.05;21.50;;;;;;;17.36;100.00;96621.16;10453156;28;20196;-73
2022/08/25 23:27:11;;;;;;;31.55;22.23;;;;;;;17.31;100.00;96616.47;10452382;28;20679;-73